Time;durP1;ratioP1;P1;durP2;ratioP2;P2;SDS_P1;SDS_P2;PMS_P1;PMS_P2;Temp;Humidity;BMP_temperature;BMP_pressure;BME280_temperature;BME280_humidity;BME280_pressure;Samples;Min_cycle;Max_cycle;Signal;HPM_P1;HPM_P2
2021/05/05 00:01:07;;;;;;;4.50;3.77;;;8.00;99.90;;;;;;476595;248;28299;-64
2021/05/05 00:03:08;;;;;;;5.53;3.80;;;8.00;99.90;;;;;;476602;248;27992;-65
2021/05/05 00:05:09;;;;;;;5.30;3.73;;;8.00;99.90;;;;;;476578;248;28388;-66
2021/05/05 00:07:10;;;;;;;5.13;3.97;;;8.00;99.90;;;;;;476604;248;28220;-65
2021/05/05 00:09:12;;;;;;;5.73;3.70;;;8.00;99.90;;;;;;476614;248;27971;-65
2021/05/05 00:11:13;;;;;;;4.40;3.70;;;8.00;99.90;;;;;;476604;248;28002;-65
2021/05/05 00:13:14;;;;;;;4.60;3.50;;;8.00;99.90;;;;;;476613;248;28078;-64
2021/05/05 00:15:15;;;;;;;4.57;4.10;;;7.90;99.90;;;;;;476606;248;27900;-65
2021/05/05 00:17:17;;;;;;;5.43;4.27;;;7.90;99.90;;;;;;476608;248;27844;-65
2021/05/05 00:19:18;;;;;;;3.20;3.00;;;7.90;99.90;;;;;;476591;248;27898;-65
2021/05/05 00:21:19;;;;;;;6.60;3.80;;;7.90;99.90;;;;;;476574;248;28000;-64
2021/05/05 00:23:20;;;;;;;5.60;2.83;;;7.90;99.90;;;;;;476590;248;27889;-64
2021/05/05 00:25:22;;;;;;;4.03;3.30;;;7.90;99.90;;;;;;476583;248;27775;-64
2021/05/05 00:27:23;;;;;;;4.57;3.73;;;7.90;99.90;;;;;;476610;248;27524;-64
2021/05/05 00:29:27;;;;;;;3.30;3.00;;;7.90;99.90;;;;;;476582;248;27885;-64
2021/05/05 00:31:29;;;;;;;8.23;4.27;;;7.90;99.90;;;;;;476584;249;27868;-65
2021/05/05 00:33:29;;;;;;;3.90;2.87;;;7.90;99.90;;;;;;476564;248;27890;-64
2021/05/05 00:35:31;;;;;;;8.90;3.80;;;7.90;99.90;;;;;;476602;248;28015;-64
2021/05/05 00:37:32;;;;;;;8.27;3.70;;;7.90;99.90;;;;;;476603;248;27946;-65
2021/05/05 00:39:33;;;;;;;4.60;3.83;;;7.90;99.90;;;;;;476595;248;28417;-64
2021/05/05 00:41:34;;;;;;;3.97;3.27;;;7.80;99.90;;;;;;476604;248;27942;-65
2021/05/05 00:43:36;;;;;;;4.60;3.90;;;7.90;99.90;;;;;;476595;248;28425;-64
2021/05/05 00:45:37;;;;;;;3.33;3.03;;;7.80;99.90;;;;;;476593;248;28551;-65
2021/05/05 00:47:38;;;;;;;5.33;3.47;;;7.80;99.90;;;;;;476589;248;27894;-66
2021/05/05 00:49:39;;;;;;;4.40;3.03;;;7.80;99.90;;;;;;476602;248;27856;-65
2021/05/05 00:51:41;;;;;;;5.43;3.77;;;7.80;99.90;;;;;;476600;249;27990;-65
2021/05/05 00:53:42;;;;;;;4.37;3.67;;;7.70;99.90;;;;;;476606;248;27901;-64
2021/05/05 00:55:43;;;;;;;4.10;3.03;;;7.70;99.90;;;;;;476611;248;27882;-65
2021/05/05 00:57:44;;;;;;;4.33;3.13;;;7.70;99.90;;;;;;476608;248;27987;-65
2021/05/05 00:59:46;;;;;;;5.70;3.30;;;7.70;99.90;;;;;;476612;248;27886;-64
2021/05/05 01:01:47;;;;;;;3.23;2.93;;;7.60;99.90;;;;;;476607;248;27971;-65
2021/05/05 01:03:49;;;;;;;3.33;3.00;;;7.60;99.90;;;;;;476612;249;28049;-65
2021/05/05 01:05:51;;;;;;;3.70;3.33;;;7.60;99.90;;;;;;476603;248;27843;-64
2021/05/05 01:07:52;;;;;;;7.80;4.13;;;7.60;99.90;;;;;;476607;248;27869;-65
2021/05/05 01:09:53;;;;;;;5.00;3.20;;;7.60;99.90;;;;;;476611;248;27662;-64
2021/05/05 01:11:54;;;;;;;5.57;3.10;;;7.50;99.90;;;;;;476596;248;27998;-64
2021/05/05 01:13:56;;;;;;;5.00;3.47;;;7.60;99.90;;;;;;476609;248;27839;-64
2021/05/05 01:15:57;;;;;;;4.23;3.27;;;7.60;99.90;;;;;;476615;248;27852;-66
2021/05/05 01:17:58;;;;;;;4.20;3.20;;;7.60;99.90;;;;;;476593;249;28491;-65
2021/05/05 01:19:59;;;;;;;4.57;3.00;;;7.60;99.90;;;;;;476599;248;27977;-65
2021/05/05 01:22:01;;;;;;;6.10;3.27;;;7.60;99.90;;;;;;476591;248;28225;-64
2021/05/05 01:24:02;;;;;;;7.63;3.57;;;7.50;99.90;;;;;;476600;248;28429;-64
2021/05/05 01:26:03;;;;;;;4.13;2.87;;;7.50;99.90;;;;;;476600;248;28348;-64
2021/05/05 01:28:04;;;;;;;4.60;3.03;;;7.60;99.90;;;;;;476565;249;28192;-65
2021/05/05 01:30:06;;;;;;;6.47;4.20;;;7.60;99.90;;;;;;476599;248;27874;-64
2021/05/05 01:32:07;;;;;;;5.60;3.40;;;7.60;99.90;;;;;;476592;248;28075;-64
2021/05/05 01:34:08;;;;;;;9.07;4.50;;;7.50;99.90;;;;;;476595;249;27965;-65
2021/05/05 01:36:09;;;;;;;4.83;3.90;;;7.50;99.90;;;;;;476605;248;27918;-64
2021/05/05 01:38:11;;;;;;;9.43;4.77;;;7.50;99.90;;;;;;476600;249;27847;-65
2021/05/05 01:40:12;;;;;;;5.00;3.40;;;7.50;99.90;;;;;;476589;248;27541;-67
2021/05/05 01:42:13;;;;;;;6.10;4.10;;;7.60;99.90;;;;;;476608;248;27864;-64
2021/05/05 01:44:14;;;;;;;5.80;4.70;;;7.60;99.90;;;;;;476609;248;27874;-65
2021/05/05 01:46:16;;;;;;;5.90;3.40;;;7.50;99.90;;;;;;476628;248;27405;-64
2021/05/05 01:48:17;;;;;;;6.90;4.33;;;7.50;99.90;;;;;;476620;248;27645;-65
2021/05/05 01:50:18;;;;;;;6.33;3.90;;;7.50;99.90;;;;;;476614;248;27889;-66
2021/05/05 01:52:19;;;;;;;8.97;3.40;;;7.50;99.90;;;;;;476621;248;27882;-64
2021/05/05 01:54:21;;;;;;;5.50;4.00;;;7.50;99.90;;;;;;476631;248;28413;-65
2021/05/05 01:56:22;;;;;;;6.60;4.67;;;7.50;99.90;;;;;;476628;248;28367;-65
2021/05/05 01:58:23;;;;;;;4.83;3.87;;;7.60;99.90;;;;;;476624;248;28124;-64
2021/05/05 02:00:24;;;;;;;12.80;4.90;;;7.50;99.90;;;;;;476618;248;28432;-64
2021/05/05 02:04:50;;;;;;;9.90;4.00;;;7.50;99.90;;;;;;465882;247;28904;-72
2021/05/05 02:06:52;;;;;;;4.43;3.50;;;7.40;99.90;;;;;;463950;256;28230;-71
2021/05/05 02:08:53;;;;;;;7.10;3.60;;;7.40;99.90;;;;;;463950;256;28469;-72
2021/05/05 02:10:54;;;;;;;8.33;3.73;;;7.40;99.90;;;;;;463955;256;28067;-71
2021/05/05 02:12:55;;;;;;;9.67;3.97;;;7.40;99.90;;;;;;463957;256;28481;-71
2021/05/05 02:14:57;;;;;;;9.27;3.53;;;7.30;99.90;;;;;;463947;256;28077;-70
2021/05/05 02:16:58;;;;;;;5.50;2.80;;;7.30;99.90;;;;;;463958;255;28078;-71
2021/05/05 02:18:59;;;;;;;5.70;2.90;;;7.30;99.90;;;;;;463945;256;28093;-73
2021/05/05 02:21:00;;;;;;;4.87;2.90;;;7.20;99.90;;;;;;463948;256;27983;-71
2021/05/05 02:23:02;;;;;;;6.33;2.73;;;7.20;99.90;;;;;;463952;256;28133;-72
2021/05/05 02:25:03;;;;;;;5.20;2.83;;;7.10;99.90;;;;;;463940;256;28097;-71
2021/05/05 02:27:04;;;;;;;4.83;2.70;;;7.10;99.90;;;;;;463957;256;28022;-71
2021/05/05 02:29:05;;;;;;;6.17;2.73;;;7.10;99.90;;;;;;463956;256;27865;-71
2021/05/05 02:31:07;;;;;;;3.97;2.43;;;7.10;99.90;;;;;;463946;256;28005;-71
2021/05/05 02:33:08;;;;;;;7.27;2.30;;;7.10;99.90;;;;;;463946;256;28083;-72
2021/05/05 02:35:09;;;;;;;8.03;2.37;;;7.10;99.90;;;;;;463952;256;28004;-71
2021/05/05 02:37:10;;;;;;;6.80;2.33;;;7.10;99.90;;;;;;463953;256;28002;-71
2021/05/05 02:39:12;;;;;;;5.93;2.37;;;7.00;99.90;;;;;;463959;256;28155;-71
2021/05/05 02:41:13;;;;;;;5.00;2.37;;;7.00;99.90;;;;;;463960;256;28463;-71
2021/05/05 02:43:14;;;;;;;3.57;2.17;;;7.00;99.90;;;;;;463950;256;28573;-73
2021/05/05 02:45:15;;;;;;;7.37;2.30;;;7.00;99.90;;;;;;463943;256;28241;-71
2021/05/05 02:47:17;;;;;;;10.73;2.53;;;7.00;99.90;;;;;;463958;256;28467;-71
2021/05/05 02:49:18;;;;;;;6.23;2.30;;;6.90;99.90;;;;;;463955;256;28984;-71
2021/05/05 02:51:19;;;;;;;5.77;2.37;;;6.90;99.90;;;;;;463948;256;27868;-71
2021/05/05 02:53:20;;;;;;;6.93;2.10;;;6.90;99.90;;;;;;463944;256;28019;-72
2021/05/05 02:55:22;;;;;;;5.27;2.23;;;6.80;99.90;;;;;;463954;256;27982;-71
2021/05/05 02:57:23;;;;;;;10.10;2.80;;;6.80;99.90;;;;;;463950;256;28020;-71
2021/05/05 02:59:27;;;;;;;4.40;2.53;;;6.80;99.90;;;;;;463994;256;27998;-71
2021/05/05 03:01:28;;;;;;;4.57;1.80;;;6.70;99.90;;;;;;463948;256;27862;-71
2021/05/05 03:03:30;;;;;;;4.97;2.20;;;6.70;99.90;;;;;;463944;256;27892;-71
2021/05/05 03:05:31;;;;;;;2.70;1.90;;;6.70;99.90;;;;;;463941;255;28158;-72
2021/05/05 03:07:32;;;;;;;4.63;2.00;;;6.60;99.90;;;;;;463941;256;29210;-71
2021/05/05 03:09:33;;;;;;;6.03;2.23;;;6.60;99.90;;;;;;463946;256;28606;-72
2021/05/05 03:11:35;;;;;;;8.63;2.50;;;6.50;99.90;;;;;;463943;256;28578;-71
2021/05/05 03:13:36;;;;;;;3.23;2.07;;;6.50;99.90;;;;;;463954;256;28598;-72
2021/05/05 03:15:37;;;;;;;6.50;2.27;;;6.40;99.90;;;;;;463956;256;28130;-73
2021/05/05 03:17:38;;;;;;;3.90;1.90;;;6.40;99.90;;;;;;463944;256;28156;-72
2021/05/05 03:19:39;;;;;;;8.23;2.27;;;6.40;99.90;;;;;;463950;256;28116;-72
2021/05/05 03:21:41;;;;;;;6.00;2.30;;;6.40;99.90;;;;;;463953;256;27904;-71
2021/05/05 03:23:42;;;;;;;4.63;2.70;;;6.40;99.90;;;;;;463949;256;28221;-71
2021/05/05 03:25:43;;;;;;;7.40;2.17;;;6.40;99.90;;;;;;463947;256;27580;-73
2021/05/05 03:27:44;;;;;;;7.90;2.00;;;6.40;99.90;;;;;;463942;256;27884;-71
2021/05/05 03:29:46;;;;;;;6.50;2.43;;;6.40;99.90;;;;;;463948;256;27802;-72
2021/05/05 03:31:47;;;;;;;3.83;2.00;;;6.30;99.90;;;;;;463940;256;28160;-71
2021/05/05 03:33:48;;;;;;;4.27;1.80;;;6.20;99.90;;;;;;463954;256;28894;-71
2021/05/05 03:35:49;;;;;;;6.60;2.23;;;6.20;99.90;;;;;;463943;256;29016;-73
2021/05/05 03:37:51;;;;;;;2.00;1.90;;;6.10;99.90;;;;;;463942;256;28015;-71
2021/05/05 03:39:52;;;;;;;4.47;2.20;;;6.10;99.90;;;;;;463943;256;28698;-72
2021/05/05 03:41:53;;;;;;;5.10;2.20;;;6.10;99.90;;;;;;463940;256;28141;-72
2021/05/05 03:43:54;;;;;;;20.23;2.97;;;6.00;99.90;;;;;;463942;256;29264;-72
2021/05/05 03:45:56;;;;;;;4.53;2.10;;;6.00;99.90;;;;;;463931;256;28341;-73
2021/05/05 03:47:57;;;;;;;6.28;2.30;;;6.00;99.90;;;;;;463937;256;29452;-71
2021/05/05 03:49:58;;;;;;;3.90;2.20;;;5.90;99.90;;;;;;463951;256;27660;-71
2021/05/05 03:51:59;;;;;;;3.70;2.57;;;5.90;99.90;;;;;;463945;255;27891;-71
2021/05/05 03:54:01;;;;;;;6.07;2.35;;;5.90;99.90;;;;;;463946;256;28107;-72
2021/05/05 03:56:02;;;;;;;4.73;2.40;;;5.80;99.90;;;;;;463941;256;27543;-71
2021/05/05 03:58:03;;;;;;;4.80;2.10;;;5.80;99.90;;;;;;463943;256;28450;-71
2021/05/05 04:00:05;;;;;;;5.70;1.90;;;5.80;99.90;;;;;;463944;256;28665;-71
2021/05/05 04:02:06;;;;;;;3.37;2.33;;;5.80;99.90;;;;;;463943;256;28901;-71
2021/05/05 04:04:07;;;;;;;5.30;2.20;;;5.70;99.90;;;;;;463938;256;28991;-71
2021/05/05 04:06:08;;;;;;;4.63;2.33;;;5.60;99.90;;;;;;463933;256;28192;-70
2021/05/05 04:08:10;;;;;;;8.53;2.47;;;5.60;99.90;;;;;;463937;256;29431;-71
2021/05/05 04:10:11;;;;;;;8.85;3.30;;;5.50;99.90;;;;;;463928;256;29366;-72
2021/05/05 04:12:12;;;;;;;10.57;4.07;;;5.60;99.90;;;;;;463943;255;27528;-71
2021/05/05 04:14:13;;;;;;;6.68;2.90;;;5.60;99.90;;;;;;463943;255;27549;-71
2021/05/05 04:16:15;;;;;;;6.40;2.00;;;5.60;99.90;;;;;;463944;256;27608;-71
2021/05/05 04:18:16;;;;;;;6.67;2.27;;;5.50;99.90;;;;;;463937;256;28109;-71
2021/05/05 04:20:17;;;;;;;8.20;2.40;;;5.50;99.90;;;;;;463938;256;28771;-72
2021/05/05 04:22:18;;;;;;;6.12;2.35;;;5.50;99.90;;;;;;463932;256;28203;-71
2021/05/05 04:24:20;;;;;;;6.80;2.63;;;5.50;99.90;;;;;;463939;256;27532;-71
2021/05/05 04:26:21;;;;;;;7.23;2.87;;;5.50;99.90;;;;;;463928;256;27910;-71
2021/05/05 04:28:22;;;;;;;9.57;3.90;;;5.40;99.90;;;;;;463919;256;28533;-71
2021/05/05 04:30:23;;;;;;;8.88;3.75;;;5.40;99.90;;;;;;463934;256;28026;-73
2021/05/05 04:32:25;;;;;;;7.00;2.20;;;5.40;99.90;;;;;;463949;256;27531;-72
2021/05/05 04:34:26;;;;;;;9.27;2.40;;;5.30;99.90;;;;;;463953;256;28906;-72
2021/05/05 04:36:27;;;;;;;16.80;3.17;;;5.30;99.90;;;;;;463957;256;28872;-71
2021/05/05 04:38:28;;;;;;;12.05;3.00;;;5.30;99.90;;;;;;463933;256;27532;-71
2021/05/05 04:40:30;;;;;;;9.57;2.57;;;5.30;99.90;;;;;;463942;256;27531;-73
2021/05/05 04:42:31;;;;;;;5.70;2.35;;;5.30;99.90;;;;;;463918;256;29191;-72
2021/05/05 04:44:32;;;;;;;9.80;2.78;;;5.30;99.90;;;;;;463934;256;27972;-73
2021/05/05 04:46:33;;;;;;;8.37;2.33;;;5.40;99.90;;;;;;463935;256;27538;-71
2021/05/05 04:48:35;;;;;;;6.77;2.63;;;5.30;99.90;;;;;;463937;256;27773;-72
2021/05/05 04:50:36;;;;;;;6.00;2.35;;;5.30;99.90;;;;;;463942;256;28374;-73
2021/05/05 04:52:37;;;;;;;13.13;3.92;;;5.30;99.90;;;;;;463937;256;27535;-72
2021/05/05 04:54:38;;;;;;;9.10;2.40;;;5.30;99.90;;;;;;463940;255;27539;-71
2021/05/05 04:56:40;;;;;;;8.53;2.43;;;5.30;99.90;;;;;;463946;256;27624;-72
2021/05/05 04:58:41;;;;;;;7.15;2.28;;;5.30;99.90;;;;;;463930;256;29477;-72
2021/05/05 05:00:42;;;;;;;4.75;2.80;;;5.40;99.90;;;;;;463935;256;28004;-73
2021/05/05 05:02:43;;;;;;;4.32;2.37;;;5.40;99.90;;;;;;463950;256;27528;-71
2021/05/05 05:04:45;;;;;;;8.93;2.55;;;5.40;99.90;;;;;;463935;256;27533;-71
2021/05/05 05:06:46;;;;;;;17.20;2.80;;;5.40;99.90;;;;;;463928;256;27526;-71
2021/05/05 05:08:47;;;;;;;16.80;3.40;;;5.50;99.90;;;;;;463936;256;28891;-71
2021/05/05 05:10:48;;;;;;;9.13;2.47;;;5.50;99.90;;;;;;463936;256;29000;-72
2021/05/05 05:12:50;;;;;;;8.38;2.45;;;5.50;99.90;;;;;;463940;256;27988;-71
2021/05/05 05:14:52;;;;;;;12.20;2.70;;;5.50;99.90;;;;;;463926;256;28106;-71
2021/05/05 05:16:52;;;;;;;5.50;2.37;;;5.50;99.90;;;;;;463928;256;27533;-71
2021/05/05 05:18:53;;;;;;;8.27;2.40;;;5.50;99.90;;;;;;463921;256;28891;-71
2021/05/05 05:20:55;;;;;;;7.47;2.60;;;5.50;99.90;;;;;;463934;256;27656;-73
2021/05/05 05:22:56;;;;;;;8.55;2.97;;;5.50;99.90;;;;;;463935;256;28482;-71
2021/05/05 05:24:57;;;;;;;6.30;2.22;;;5.60;99.90;;;;;;463937;256;27542;-72
2021/05/05 05:26:59;;;;;;;10.93;2.83;;;5.60;99.90;;;;;;463916;256;27604;-72
2021/05/05 05:29:01;;;;;;;9.43;3.17;;;5.60;99.90;;;;;;463933;256;27993;-71
2021/05/05 05:31:01;;;;;;;10.65;3.20;;;5.70;99.90;;;;;;463931;256;27559;-72
2021/05/05 05:33:03;;;;;;;9.82;2.30;;;5.70;99.90;;;;;;463926;256;27643;-71
2021/05/05 05:35:04;;;;;;;4.37;2.20;;;5.60;99.90;;;;;;463939;256;27630;-71
2021/05/05 05:37:05;;;;;;;8.00;2.72;;;5.70;99.90;;;;;;463923;256;28022;-71
2021/05/05 05:39:06;;;;;;;9.23;2.70;;;5.70;99.90;;;;;;463932;256;27559;-71
2021/05/05 05:41:07;;;;;;;6.50;2.57;;;5.70;99.90;;;;;;463929;256;27686;-74
2021/05/05 05:43:09;;;;;;;8.33;2.77;;;5.80;99.90;;;;;;463932;256;29333;-71
2021/05/05 05:45:10;;;;;;;6.43;2.13;;;5.90;99.90;;;;;;463923;256;29363;-71
2021/05/05 05:47:11;;;;;;;8.33;2.80;;;5.90;99.90;;;;;;463924;256;28969;-71
2021/05/05 05:49:12;;;;;;;8.20;2.10;;;5.90;99.90;;;;;;463928;256;29458;-71
2021/05/05 05:51:14;;;;;;;7.20;2.67;;;6.10;99.90;;;;;;463925;256;28184;-73
2021/05/05 05:53:15;;;;;;;7.33;2.53;;;6.30;99.90;;;;;;463927;256;28060;-71
2021/05/05 05:55:16;;;;;;;9.67;2.80;;;6.20;99.90;;;;;;463926;256;28151;-71
2021/05/05 05:57:17;;;;;;;9.93;3.30;;;6.30;99.90;;;;;;463932;256;28004;-71
2021/05/05 05:59:19;;;;;;;6.03;2.53;;;6.40;99.90;;;;;;463925;256;28120;-72
2021/05/05 06:01:20;;;;;;;6.37;2.50;;;6.50;99.90;;;;;;463932;256;28243;-71
2021/05/05 06:03:21;;;;;;;12.30;3.40;;;6.50;99.90;;;;;;463931;256;28115;-72
2021/05/05 06:05:22;;;;;;;6.17;2.50;;;6.40;99.90;;;;;;463937;256;27897;-71
2021/05/05 06:07:24;;;;;;;10.23;3.03;;;6.50;99.90;;;;;;463897;256;27993;-70
2021/05/05 06:09:25;;;;;;;8.83;2.83;;;6.40;99.90;;;;;;463934;256;28036;-71
2021/05/05 06:11:26;;;;;;;7.97;2.87;;;6.40;99.90;;;;;;463927;256;28048;-71
2021/05/05 06:13:27;;;;;;;8.47;3.20;;;6.50;99.90;;;;;;463892;256;28110;-72
2021/05/05 06:15:29;;;;;;;10.37;2.30;;;6.40;99.90;;;;;;463904;256;28396;-72
2021/05/05 06:17:30;;;;;;;9.60;2.73;;;6.40;99.90;;;;;;463927;256;28194;-71
2021/05/05 06:19:31;;;;;;;7.00;3.10;;;6.40;99.90;;;;;;463901;256;28421;-72
2021/05/05 06:21:32;;;;;;;6.93;3.00;;;6.30;99.90;;;;;;463911;256;28466;-73
2021/05/05 06:23:34;;;;;;;5.73;2.70;;;6.50;99.90;;;;;;463928;256;28482;-71
2021/05/05 06:25:35;;;;;;;12.80;2.90;;;6.60;99.90;;;;;;463935;255;27966;-71
2021/05/05 06:27:36;;;;;;;7.20;2.50;;;6.60;99.90;;;;;;463931;256;27899;-71
2021/05/05 06:29:37;;;;;;;8.87;2.93;;;6.70;99.90;;;;;;463951;256;27956;-72
2021/05/05 06:31:39;;;;;;;7.77;2.70;;;6.70;99.90;;;;;;463958;256;27976;-71
2021/05/05 06:33:40;;;;;;;11.63;3.77;;;6.80;99.90;;;;;;463949;256;27922;-72
2021/05/05 06:35:41;;;;;;;5.93;3.00;;;6.80;99.90;;;;;;463954;256;28459;-72
2021/05/05 06:37:42;;;;;;;9.37;2.67;;;6.70;99.90;;;;;;463951;256;27841;-72
2021/05/05 06:39:44;;;;;;;13.50;3.83;;;6.80;99.90;;;;;;463955;256;27670;-72
2021/05/05 06:41:45;;;;;;;13.73;2.80;;;6.80;99.90;;;;;;463946;256;27974;-71
2021/05/05 06:43:46;;;;;;;11.87;3.00;;;6.80;99.90;;;;;;463949;256;27709;-71
2021/05/05 06:45:47;;;;;;;9.17;2.70;;;6.80;99.90;;;;;;463952;256;27905;-71
2021/05/05 06:47:49;;;;;;;10.93;3.80;;;6.70;99.90;;;;;;463930;256;28559;-72
2021/05/05 06:49:50;;;;;;;10.23;3.20;;;6.70;99.90;;;;;;463946;256;28529;-72
2021/05/05 06:51:51;;;;;;;8.93;3.07;;;6.90;99.90;;;;;;463960;256;28210;-72
2021/05/05 06:53:52;;;;;;;5.17;2.67;;;7.20;99.90;;;;;;463953;256;28087;-71
2021/05/05 06:55:54;;;;;;;6.30;2.40;;;7.30;99.90;;;;;;463955;256;28457;-73
2021/05/05 06:57:55;;;;;;;11.07;3.60;;;7.10;99.90;;;;;;463942;256;27642;-72
2021/05/05 06:59:56;;;;;;;6.93;2.80;;;7.00;99.90;;;;;;463940;256;28085;-72
2021/05/05 07:01:57;;;;;;;8.83;2.53;;;6.90;99.90;;;;;;463952;256;28046;-72
2021/05/05 07:03:59;;;;;;;8.33;2.97;;;6.80;99.90;;;;;;463947;256;27895;-72
2021/05/05 07:06:01;;;;;;;11.63;2.70;;;6.90;99.90;;;;;;463949;256;28019;-73
2021/05/05 07:08:01;;;;;;;8.97;2.83;;;6.90;99.90;;;;;;463922;256;27761;-72
2021/05/05 07:10:02;;;;;;;8.00;3.67;;;6.80;99.90;;;;;;463959;256;27966;-72
2021/05/05 07:12:04;;;;;;;8.90;2.67;;;7.00;99.90;;;;;;463938;256;28013;-71
2021/05/05 07:14:05;;;;;;;8.37;3.17;;;7.10;99.90;;;;;;463953;256;27986;-72
2021/05/05 07:16:06;;;;;;;8.77;3.27;;;7.20;99.90;;;;;;463952;256;28030;-72
2021/05/05 07:18:08;;;;;;;6.97;2.53;;;7.20;99.90;;;;;;463946;256;28168;-72
2021/05/05 07:20:09;;;;;;;8.70;2.90;;;7.20;99.90;;;;;;463940;256;28581;-72
2021/05/05 07:22:10;;;;;;;13.47;2.83;;;7.40;99.90;;;;;;463943;256;28484;-72
2021/05/05 07:24:11;;;;;;;8.40;2.80;;;7.40;99.90;;;;;;463950;255;28481;-71
2021/05/05 07:26:12;;;;;;;7.77;2.87;;;7.50;99.90;;;;;;463931;256;28432;-74
2021/05/05 07:28:14;;;;;;;3.50;2.30;;;7.60;99.90;;;;;;463938;256;28233;-72
2021/05/05 07:30:15;;;;;;;8.83;3.10;;;7.70;99.90;;;;;;463937;256;27985;-72
2021/05/05 07:32:16;;;;;;;10.07;2.80;;;7.80;99.90;;;;;;463947;256;27515;-71
2021/05/05 07:34:17;;;;;;;5.60;2.60;;;7.80;99.90;;;;;;463946;256;27986;-71
2021/05/05 07:36:19;;;;;;;8.60;2.20;;;7.60;99.90;;;;;;463939;256;27656;-73
2021/05/05 07:47:33;;;;;;;5.23;2.30;;;7.30;99.90;;;;;;463930;256;28015;-72
2021/05/05 07:49:32;;;;;;;10.87;2.90;;;7.50;99.90;;;;;;463956;255;28476;-73
2021/05/05 07:51:30;;;;;;;8.83;2.87;;;7.40;99.90;;;;;;463943;255;28091;-72
2021/05/05 07:53:32;;;;;;;10.17;2.80;;;7.50;99.90;;;;;;463942;256;27997;-72
2021/05/05 07:55:33;;;;;;;6.33;2.60;;;7.60;99.90;;;;;;463940;256;28090;-71
2021/05/05 07:57:34;;;;;;;5.63;2.50;;;7.60;99.90;;;;;;463948;256;28001;-72
2021/05/05 07:59:35;;;;;;;12.10;2.57;;;7.90;99.90;;;;;;463937;256;27758;-71
2021/05/05 08:01:37;;;;;;;5.97;2.00;;;8.00;99.90;;;;;;463937;256;28113;-71
2021/05/05 08:03:38;;;;;;;6.20;2.30;;;8.10;99.90;;;;;;463935;256;27783;-73
2021/05/05 08:05:39;;;;;;;8.60;2.30;;;8.20;99.90;;;;;;463939;256;27639;-71
2021/05/05 08:07:40;;;;;;;11.53;3.07;;;8.20;99.90;;;;;;463926;256;28240;-71
2021/05/05 08:09:42;;;;;;;7.70;2.40;;;8.10;99.90;;;;;;463922;256;28027;-72
2021/05/05 08:11:43;;;;;;;5.80;2.10;;;8.30;99.90;;;;;;463928;256;27998;-72
2021/05/05 08:13:46;;;;;;;3.80;2.53;;;8.40;99.90;;;;;;463946;256;28474;-72
2021/05/05 08:15:45;;;;;;;9.33;2.63;;;8.40;99.90;;;;;;463941;255;28210;-71
2021/05/05 08:17:47;;;;;;;4.23;2.33;;;8.20;99.90;;;;;;463947;256;28531;-72
2021/05/05 08:19:48;;;;;;;11.60;2.67;;;8.10;99.90;;;;;;463945;256;28211;-72
2021/05/05 08:21:49;;;;;;;8.27;2.77;;;8.00;99.90;;;;;;463938;256;28222;-72
2021/05/05 08:23:50;;;;;;;9.67;2.30;;;7.90;99.90;;;;;;463936;256;27977;-73
2021/05/05 08:25:52;;;;;;;5.27;2.10;;;7.80;99.90;;;;;;463937;256;28001;-71
2021/05/05 08:27:53;;;;;;;9.00;2.57;;;7.70;99.90;;;;;;463935;256;28201;-71
2021/05/05 08:29:54;;;;;;;4.60;1.97;;;7.60;99.90;;;;;;463933;256;28002;-71
2021/05/05 08:31:55;;;;;;;3.17;2.00;;;7.70;99.90;;;;;;463947;256;27639;-71
2021/05/05 08:33:57;;;;;;;2.63;1.90;;;7.70;99.90;;;;;;463934;256;28012;-73
2021/05/05 08:35:58;;;;;;;6.10;2.27;;;7.60;99.90;;;;;;463939;256;28033;-72
2021/05/05 08:37:59;;;;;;;2.97;2.03;;;7.80;99.90;;;;;;463937;256;27656;-71
2021/05/05 08:40:00;;;;;;;2.80;2.00;;;7.80;99.90;;;;;;463938;256;28010;-71
2021/05/05 08:42:02;;;;;;;2.80;2.03;;;8.20;99.90;;;;;;463934;256;28077;-72
2021/05/05 08:44:03;;;;;;;7.47;2.57;;;8.30;99.90;;;;;;463936;256;27632;-73
2021/05/05 08:46:07;;;;;;;8.60;2.37;;;8.30;99.90;;;;;;463938;256;28077;-72
2021/05/05 08:48:11;;;;;;;5.53;1.90;;;7.90;99.90;;;;;;463936;256;27863;-72
2021/05/05 08:50:12;;;;;;;5.57;2.40;;;7.70;99.90;;;;;;463933;256;28005;-71
2021/05/05 08:52:13;;;;;;;4.37;2.20;;;7.70;99.90;;;;;;463937;256;28084;-72
2021/05/05 08:54:14;;;;;;;11.20;2.27;;;7.50;99.90;;;;;;463934;256;27968;-71
2021/05/05 08:56:16;;;;;;;5.70;2.57;;;7.40;99.90;;;;;;463941;256;28114;-71
2021/05/05 08:58:17;;;;;;;5.13;2.30;;;7.00;99.90;;;;;;463933;255;28096;-72
2021/05/05 09:00:18;;;;;;;5.13;2.63;;;6.00;99.90;;;;;;463932;256;28019;-71
2021/05/05 09:02:20;;;;;;;4.20;2.30;;;5.60;99.90;;;;;;463938;256;28084;-70
2021/05/05 09:04:21;;;;;;;5.80;2.80;;;5.70;99.90;;;;;;463922;256;28000;-70
2021/05/05 09:06:22;;;;;;;5.10;2.43;;;5.60;99.90;;;;;;463939;256;28471;-70
2021/05/05 09:08:23;;;;;;;3.20;1.80;;;5.40;99.90;;;;;;463916;256;28544;-70
2021/05/05 09:10:24;;;;;;;2.90;1.87;;;5.30;99.90;;;;;;463913;256;28465;-70
2021/05/05 09:12:26;;;;;;;1.90;1.70;;;5.00;99.90;;;;;;463946;256;28450;-70
2021/05/05 09:14:28;;;;;;;1.50;1.40;;;5.10;99.90;;;;;;463937;256;29127;-70
2021/05/05 09:16:29;;;;;;;1.95;1.80;;;5.00;99.90;;;;;;463920;256;29262;-70
2021/05/05 09:18:29;;;;;;;2.22;1.80;;;5.00;99.90;;;;;;463925;255;27651;-70
2021/05/05 09:20:35;;;;;;;1.95;1.83;;;5.00;99.90;;;;;;463942;256;27660;-71
2021/05/05 09:22:35;;;;;;;3.50;1.83;;;5.00;99.90;;;;;;463931;256;28004;-70
2021/05/05 09:24:38;;;;;;;2.63;1.90;;;5.30;99.90;;;;;;463934;256;29433;-71
2021/05/05 09:26:38;;;;;;;2.10;2.00;;;5.30;99.90;;;;;;463935;256;28112;-70
2021/05/05 09:28:39;;;;;;;3.42;1.80;;;5.30;99.90;;;;;;463928;256;28149;-70
2021/05/05 09:30:40;;;;;;;1.70;1.60;;;5.10;99.90;;;;;;463926;256;27583;-70
2021/05/05 09:32:41;;;;;;;3.60;1.73;;;5.00;99.90;;;;;;463932;256;28949;-69
2021/05/05 09:34:42;;;;;;;1.90;1.70;;;5.10;99.90;;;;;;463929;256;28093;-71
2021/05/05 09:36:44;;;;;;;2.00;1.80;;;5.10;99.90;;;;;;463939;256;27864;-70
2021/05/05 09:38:49;;;;;;;2.73;1.90;;;5.30;99.90;;;;;;463922;255;28000;-70
2021/05/05 09:40:46;;;;;;;1.95;1.52;;;5.60;99.90;;;;;;463945;255;27902;-70
2021/05/05 09:42:47;;;;;;;4.23;2.00;;;5.60;99.90;;;;;;463927;256;27519;-70
2021/05/05 09:44:49;;;;;;;3.40;2.00;;;5.70;99.90;;;;;;463939;256;28387;-72
2021/05/05 09:46:53;;;;;;;3.70;2.17;;;5.50;99.90;;;;;;463933;256;28462;-70
2021/05/05 09:48:54;;;;;;;2.00;1.90;;;5.60;99.90;;;;;;463919;256;28124;-70
2021/05/05 09:50:55;;;;;;;3.30;1.80;;;5.50;99.90;;;;;;463933;256;28604;-71
2021/05/05 09:52:57;;;;;;;3.67;1.80;;;5.70;99.90;;;;;;463925;256;29335;-70
2021/05/05 09:54:59;;;;;;;1.97;1.80;;;5.70;99.90;;;;;;463945;256;27537;-71
2021/05/05 09:56:59;;;;;;;2.70;2.13;;;5.80;99.90;;;;;;463922;256;27908;-72
2021/05/05 09:59:00;;;;;;;4.53;1.90;;;5.90;99.90;;;;;;463928;256;27784;-70
2021/05/05 10:01:02;;;;;;;1.97;1.83;;;6.20;99.90;;;;;;463924;256;27983;-70
2021/05/05 10:03:03;;;;;;;5.53;2.20;;;6.30;99.90;;;;;;463945;256;28135;-70
2021/05/05 10:05:04;;;;;;;4.77;1.87;;;6.40;99.90;;;;;;463947;256;28945;-70
2021/05/05 10:07:05;;;;;;;2.00;1.90;;;6.40;99.90;;;;;;463964;256;27957;-70
2021/05/05 10:09:07;;;;;;;6.57;2.33;;;6.50;99.90;;;;;;463951;256;27655;-70
2021/05/05 10:11:08;;;;;;;2.93;1.90;;;6.60;99.90;;;;;;463950;256;28152;-71
2021/05/05 10:13:10;;;;;;;2.17;1.80;;;6.80;99.90;;;;;;463962;256;28036;-71
2021/05/05 10:15:10;;;;;;;1.90;1.80;;;6.90;99.90;;;;;;463943;256;28088;-70
2021/05/05 10:17:12;;;;;;;2.83;2.23;;;6.90;99.90;;;;;;463957;256;27880;-71
2021/05/05 10:19:13;;;;;;;1.83;1.73;;;7.10;99.90;;;;;;463949;256;28000;-71
2021/05/05 10:21:14;;;;;;;1.70;1.60;;;7.30;99.90;;;;;;463950;256;28188;-71
2021/05/05 10:23:17;;;;;;;3.67;2.20;;;7.40;99.90;;;;;;463942;256;28390;-70
2021/05/05 10:25:17;;;;;;;2.03;1.93;;;7.40;99.90;;;;;;463953;255;28193;-70
2021/05/05 10:27:18;;;;;;;4.27;2.07;;;7.20;99.90;;;;;;463953;256;28102;-72
2021/05/05 10:29:19;;;;;;;4.13;2.17;;;7.20;99.90;;;;;;463948;256;28431;-70
2021/05/05 10:31:24;;;;;;;4.53;2.00;;;7.20;99.90;;;;;;463948;256;28032;-71
2021/05/05 10:33:25;;;;;;;3.20;2.20;;;7.30;99.90;;;;;;463962;255;28004;-70
2021/05/05 10:35:23;;;;;;;2.90;2.17;;;7.60;99.90;;;;;;463970;255;27879;-71
2021/05/05 10:37:24;;;;;;;5.27;2.17;;;7.80;99.90;;;;;;463947;256;28054;-72
2021/05/05 10:39:26;;;;;;;5.67;2.37;;;8.00;99.90;;;;;;463955;256;27994;-71
2021/05/05 10:41:27;;;;;;;3.93;2.47;;;8.00;99.90;;;;;;463935;256;27874;-72
2021/05/05 10:43:28;;;;;;;2.53;1.97;;;8.30;99.90;;;;;;463958;256;27982;-71
2021/05/05 10:45:29;;;;;;;5.60;2.03;;;8.80;99.90;;;;;;463947;256;28094;-71
2021/05/05 10:47:37;;;;;;;3.33;2.00;;;8.80;99.90;;;;;;463949;256;28046;-73
2021/05/05 10:49:38;;;;;;;2.23;2.03;;;8.60;99.90;;;;;;463937;255;28025;-71